Flight Track Log - Related Links

Times and Time Zones

All times are in EDT time to prevent confusion due to time zone crossing. See the N662US flight status page for this flight to view local times or setup timezone preferences in your user account.

Time Position Orientation Groundspeed Altitude Reporting Facility
EDT Latitude Longitude Course Direction KTS MPH feet Rate Location/Type
05:42PM 32.0050 34.8760 North 2 2  Level FlightAware
05:43PM 32.0050 34.8770 90° East 2 2 14 Level FlightAware
05:46PM 32.1976 34.6140 315° West  Level FlightAware Approximate
05:47PM 32.2863 34.5129 313° West  Level FlightAware Approximate
05:48PM 32.3698 34.4055 313° West  Level FlightAware Approximate
05:49PM 32.4514 34.2961 311° West  Level FlightAware Approximate
05:50PM 32.5319 34.1853 311° West  Level FlightAware Approximate
05:51PM 32.6260 34.0907 320° Northwest  Level FlightAware Approximate
05:52PM 32.7011 33.9749 307° West  Level FlightAware Approximate
05:53PM 32.7873 33.8706 317° Northwest  Level FlightAware Approximate
05:54PM 32.0060 34.8780 90° East  Level FlightAware
05:57PM 32.1888 34.6242 315° West  Level FlightAware Approximate
05:58PM 32.2773 34.5227 320° Northwest  Level FlightAware Approximate
05:58PM 32.0060 34.8790 320° Northwest 8 9  Level FlightAware
05:58PM 32.0070 34.8800 40° Northeast 13 15 45 Level FlightAware
05:58PM 32.0080 34.8810 40° Northeast 13 15 47 Level FlightAware
05:59PM 32.0110 34.8830 29° Northeast 15 17 50 Level FlightAware
06:00PM 32.0120 34.8840 40° Northeast 15 17 61 Level FlightAware
06:00PM 32.0150 34.8870 40° Northeast 20 23 65 Level FlightAware
06:03PM 32.1786 34.6362 315° West  Level FlightAware Approximate
06:04PM 32.2663 34.5338 315° West  Level FlightAware Approximate
06:04PM 32.0140 34.8660 313° West 187 215 300  Level FlightAware
06:05PM 32.3517 34.4288 313° West  Level FlightAware Approximate
06:05PM 32.0100 34.8450 257° West 183 211 1,200  Level FlightAware
06:05PM 32.0060 34.8240 257° West 183 211 1,200 1,444 Level FlightAware
06:06PM 31.9980 34.7950 252° West 187 215 2,500 2,348 Climbing FlightAware
06:06PM 31.9940 34.7760 256° West 189 217 3,000 1,220 Climbing FlightAware
06:07PM 32.0010 34.7330 281° West 213 245 3,700 1,068 Climbing FlightAware
06:07PM 32.0130 34.6980 292° West 236 272 4,300 1,222 Climbing FlightAware
06:07PM 32.0230 34.6660 290° West 258 297 4,800 1,412 Climbing FlightAware
06:08PM 32.0380 34.6280 295° West 281 323 5,500 1,698 Climbing FlightAware
06:08PM 32.0520 34.5940 296° West 289 333 6,300 2,082 Climbing FlightAware
06:09PM 32.0650 34.5610 295° West 297 342 7,200 2,000 Climbing FlightAware
06:09PM 32.0840 34.5120 295° West 307 353 8,300 1,889 Climbing FlightAware
06:10PM 32.0950 34.4840 295° West 311 358 8,900 1,614 Climbing FlightAware
06:12PM 32.2595 34.2771 313° West  Level Estimated
06:12PM 32.1170 34.4280 313° West 329 379 12,200  Level FlightAware
06:13PM 32.2190 34.1700 295° West 395 455 12,600 1,500 Climbing FlightAware
06:13PM 32.2560 34.0760 295° West 416 479 14,500 2,302 Climbing FlightAware
06:14PM 32.2920 33.9840 295° West 425 489 15,900 1,807 Climbing FlightAware
06:15PM 32.3250 33.9010 295° West 434 499 17,000 975 Climbing FlightAware
06:15PM 32.3520 33.8270 293° West 437 503 17,200 1,517 Climbing FlightAware
06:16PM 32.4000 33.7090 296° West 451 519 19,200 1,952 Climbing FlightAware
06:17PM 32.4310 33.6270 294° West 460 529 19,900 1,315 Climbing FlightAware
06:17PM 32.4660 33.5370 295° West 467 537 20,800 706 Climbing FlightAware
06:18PM 32.5030 33.4410 295° West 468 539 20,900 71 Climbing FlightAware
06:19PM 32.5290 33.3690 293° West 468 539 20,900 2,000 Level FlightAware
06:19PM 32.5780 33.2480 296° West 478 550 23,400 1,148 Climbing FlightAware
06:22PM 32.7624 33.0097 313° West  Level Estimated
06:22PM 32.7080 32.8950 313° West 485 558 24,900  Level FlightAware
06:23PM 32.7690 32.7420 295° West 498 573 26,400 1,680 Climbing FlightAware
06:24PM 32.8220 32.6030 294° West 503 579 27,700 1,586 Climbing FlightAware
06:25PM 32.8690 32.4870 296° West 500 575 28,700 1,341 Climbing FlightAware
06:25PM 32.9280 32.3830 304° West 505 581 29,600 796 Climbing FlightAware
06:26PM 33.0050 32.2550 306° West 500 575 30,000 255 Climbing FlightAware
06:27PM 33.0600 32.1650 306° West 503 579 30,000  Level FlightAware
06:28PM 33.1210 32.0630 306° West 502 578 30,000  Level FlightAware
06:28PM 33.1720 31.9770 305° West 501 577 30,000  Level FlightAware
06:29PM 33.2230 31.8940 306° West 502 578 30,000  Level FlightAware
06:30PM 33.2840 31.7900 305° West 501 577 30,000  Level FlightAware
06:30PM 33.3380 31.7000 306° West 502 578 30,000  Level FlightAware
06:31PM 33.3820 31.6250 305° West 502 578 30,000  Level FlightAware
06:32PM 33.4400 31.5270 305° West 503 579 30,000  Level FlightAware
06:32PM 33.5000 31.4270 306° West 503 579 30,000  Level FlightAware
06:33PM 33.5510 31.3400 305° West 503 579 30,000  Level FlightAware
06:34PM 33.6070 31.2450 305° West 502 578 30,000  Level FlightAware
06:34PM 33.6580 31.1580 305° West 502 578 30,000  Level FlightAware
06:35PM 33.7270 31.0370 304° West 502 578 30,000  Level FlightAware
06:36PM 33.7730 30.9590 305° West 501 577 30,000  Level FlightAware
06:36PM 33.8260 30.8680 305° West 496 571 30,000  Level FlightAware
06:37PM 33.8790 30.7770 305° West 494 568 30,000  Level FlightAware
06:38PM 33.9250 30.6970 305° West 493 567 30,000  Level FlightAware
06:38PM 33.9840 30.5950 305° West 492 566 30,000  Level FlightAware
06:39PM 34.0350 30.5080 305° West 493 567 30,000  Level FlightAware
06:40PM 34.0750 30.4340 303° West 493 567 30,000  Level FlightAware
06:40PM 34.1400 30.3240 306° West 498 573 30,000  Level FlightAware
06:42PM 34.2280 30.1630 303° West 494 568 30,000  Level FlightAware
06:42PM 34.2660 30.0920 303° West 494 568 30,000  Level FlightAware
06:43PM 34.3170 29.9970 303° West 494 568 30,000  Level FlightAware
06:44PM 34.3550 29.9260 303° West 494 568 30,000  Level FlightAware
06:44PM 34.4060 29.8310 303° West 494 568 30,000  Level FlightAware
06:45PM 34.5070 29.6610 306° West 497 572 30,000  Level FlightAware
06:46PM 34.5500 29.5820 303° West 497 572 30,000  Level FlightAware
06:46PM 34.5900 29.5110 304° West 497 572 30,000  Level FlightAware
06:47PM 34.6720 29.3670 305° West 495 570 30,000  Level FlightAware
06:48PM 34.7190 29.2810 304° West 495 570 30,000  Level FlightAware
06:49PM 34.7750 29.1790 304° West 496 571 30,000  Level FlightAware
06:49PM 34.8410 29.0610 304° West 497 572 30,000  Level FlightAware
06:50PM 34.8820 28.9870 304° West 496 571 30,000  Level FlightAware
06:51PM 34.9450 28.8730 304° West 496 571 30,000  Level FlightAware
06:52PM 34.9950 28.7800 303° West 495 570 30,000  Level FlightAware
06:52PM 35.0460 28.6870 304° West 495 570 30,000  Level FlightAware
06:53PM 35.0940 28.5980 303° West 497 572 30,000  Level FlightAware
06:54PM 35.1530 28.4900 304° West 497 572 30,000  Level FlightAware
06:54PM 35.2080 28.3870 303° West 498 573 30,000  Level FlightAware
06:55PM 35.2600 28.2930 304° West 498 573 30,000  Level FlightAware
06:56PM 35.3110 28.1990 304° West 497 572 30,000  Level FlightAware
06:56PM 35.3630 28.1020 303° West 497 572 30,000  Level FlightAware
06:57PM 35.4170 27.9980 303° West 498 573 30,000  Level FlightAware
06:58PM 35.4650 27.9090 304° West 492 566 30,000  Level FlightAware
06:58PM 35.5040 27.8320 302° West 492 566 30,000  Level FlightAware
06:59PM 35.5540 27.7330 302° West 492 566 30,000  Level FlightAware
07:00PM 35.5910 27.6610 302° West 492 566 30,000  Level FlightAware
07:01PM 35.6410 27.5640 302° West 492 566 30,000  Level FlightAware
07:01PM 35.7030 27.4620 307° West 487 560 30,000  Level FlightAware
07:02PM 35.7500 27.3720 303° West 488 562 30,000  Level FlightAware
07:02PM 35.8030 27.2710 303° West 489 563 30,000  Level FlightAware
07:03PM 35.8570 27.1660 302° West 490 564 30,000  Level FlightAware
07:04PM 35.9140 27.0580 303° West 489 563 30,000  Level FlightAware
07:04PM 35.9570 26.9750 303° West 489 563 30,000  Level FlightAware
07:05PM 36.0100 26.8730 303° West 487 560 30,000  Level FlightAware
07:06PM 36.0600 26.7760 303° West 487 560 30,000  Level FlightAware
07:06PM 36.1070 26.6830 302° West 489 563 30,000  Level FlightAware
07:07PM 36.1650 26.5710 303° West 497 572 30,000  Level FlightAware
07:08PM 36.2100 26.4810 302° West 496 571 30,000  Level FlightAware
07:09PM 36.2690 26.3690 303° West 493 567 30,000  Level FlightAware
07:09PM 36.3180 26.2720 302° West 490 564 30,000  Level FlightAware
07:10PM 36.3660 26.1770 302° West 488 562 30,000  Level FlightAware
07:11PM 36.4160 26.0770 302° West 485 558 30,000  Level FlightAware
07:11PM 36.4610 25.9880 302° West 483 556 30,000  Level FlightAware
07:12PM 36.5100 25.8910 302° West 482 555 30,000  Level FlightAware
07:13PM 36.5700 25.7710 302° West 483 556 30,000  Level FlightAware
07:13PM 36.6180 25.6760 302° West 485 558 30,000  Level FlightAware
07:14PM 36.6670 25.5760 301° West 487 560 30,000  Level FlightAware
07:15PM 36.7150 25.4810 302° West 488 562 30,000  Level FlightAware
07:15PM 36.7670 25.3780 302° West 488 562 30,000  Level FlightAware
07:16PM 36.8190 25.2700 301° West 488 562 30,000  Level FlightAware
07:17PM 36.8660 25.1760 302° West 488 562 30,000  Level FlightAware
07:18PM 36.9190 25.0680 302° West 488 562 30,000  Level FlightAware
07:18PM 36.9670 24.9690 301° West 488 562 30,000  Level FlightAware
07:19PM 37.0140 24.8720 301° West 489 563 30,000  Level FlightAware
07:20PM 37.0610 24.7760 302° West 487 560 30,000  Level FlightAware
07:20PM 37.1140 24.6670 301° West 485 558 30,000  Level FlightAware
07:21PM 37.1650 24.5620 301° West 484 557 30,000  Level FlightAware
07:22PM 37.2070 24.4750 301° West 483 556 30,000  Level FlightAware
07:22PM 37.2460 24.3940 301° West 480 552 30,000  Level FlightAware
07:23PM 37.3030 24.2740 301° West 480 552 30,000  Level FlightAware
07:24PM 37.3430 24.1910 301° West 479 551 30,000  Level FlightAware
07:24PM 37.3870 24.0980 301° West 475 547 30,000  Level FlightAware
07:25PM 37.4320 24.0030 301° West 475 547 30,000  Level FlightAware
07:26PM 37.4780 23.9060 301° West 473 544 30,000  Level FlightAware
07:27PM 37.5320 23.7940 301° West 476 548 30,000  Level FlightAware
07:27PM 37.5780 23.6940 300° West 477 549 30,000  Level FlightAware
07:28PM 37.6250 23.5960 301° West 476 548 30,000  Level FlightAware
07:29PM 37.6750 23.4880 300° West 477 549 30,000  Level FlightAware
07:29PM 37.7210 23.3900 301° West 477 549 30,000  Level FlightAware
07:30PM 37.7640 23.2980 301° West 477 549 30,000  Level FlightAware
07:31PM 37.8150 23.1880 300° West 476 548 30,000  Level FlightAware
07:31PM 37.8600 23.0890 300° West 475 547 30,000  Level FlightAware
07:32PM 37.9080 22.9860 301° West 473 544 30,000  Level FlightAware
07:33PM 37.9540 22.8930 302° West 472 543 30,000  Level FlightAware
07:34PM 38.0100 22.7920 305° West 474 545 30,000  Level FlightAware
07:34PM 38.0590 22.7030 305° West 475 547 30,000  Level FlightAware
07:35PM 38.1100 22.6100 305° West 479 551 30,000  Level FlightAware
07:36PM 38.1660 22.5100 305° West 483 556 30,000  Level FlightAware
07:36PM 38.2130 22.4230 305° West 484 557 30,000  Level FlightAware
07:37PM 38.2640 22.3270 304° West 485 558 30,000  Level FlightAware
07:38PM 38.3180 22.2280 305° West 486 559 30,000  Level FlightAware
07:38PM 38.3680 22.1360 305° West 487 560 30,000  Level FlightAware
07:39PM 38.4180 22.0430 304° West 487 560 30,000  Level FlightAware
07:40PM 38.4690 21.9460 304° West 486 559 30,000  Level FlightAware
07:40PM 38.5260 21.8420 305° West 487 560 30,000  Level FlightAware
07:41PM 38.5760 21.7470 304° West 488 562 30,000  Level FlightAware
07:42PM 38.6210 21.6630 304° West 490 564 30,000  Level FlightAware
07:42PM 38.6840 21.5430 304° West 491 565 30,000  Level FlightAware
07:43PM 38.7300 21.4560 304° West 490 564 30,000  Level FlightAware
07:44PM 38.7750 21.3720 305° West 490 564 30,000  Level FlightAware
07:44PM 38.8460 21.2370 304° West 490 564 30,000  Level FlightAware
07:45PM 38.8960 21.1410 304° West 492 566 30,000  Level FlightAware
07:46PM 38.9630 21.0120 304° West 494 568 30,000  Level FlightAware
07:47PM 39.0170 20.9090 304° West 495 570 30,000  Level FlightAware
07:47PM 39.0740 20.7990 304° West 496 571 30,000  Level FlightAware
07:48PM 39.1230 20.7040 304° West 496 571 30,000  Level FlightAware
07:49PM 39.1730 20.6080 304° West 497 572 30,000  Level FlightAware
07:50PM 39.2320 20.4920 303° West 497 572 30,000  Level FlightAware
07:50PM 39.2810 20.3950 303° West 498 573 30,000  Level FlightAware
07:51PM 39.3330 20.2940 304° West 497 572 30,000  Level FlightAware
07:52PM 39.3890 20.1820 303° West 497 572 30,000  Level FlightAware
07:52PM 39.4400 20.0870 305° West 495 570 30,000  Level FlightAware
07:53PM 39.5100 19.9900 313° West 496 571 30,000  Level FlightAware
07:54PM 39.6050 19.8610 314° West 494 568 30,000  Level FlightAware
07:55PM 39.6610 19.7870 315° West 488 562 30,000  Level FlightAware
07:55PM 39.7390 19.6830 314° West 493 567 30,000  Level FlightAware
07:56PM 39.8020 19.5980 314° West 494 568 30,000  Level FlightAware
07:57PM 39.8660 19.5120 314° West 496 571 30,000  Level FlightAware
07:57PM 39.9240 19.4310 313° West 499 574 30,000  Level FlightAware
07:58PM 39.9850 19.3290 308° West 501 577 30,000 304 Level FlightAware
07:59PM 40.0380 19.2430 309° West 504 580 30,400 947 Climbing FlightAware
07:59PM 40.0960 19.1510 310° West 503 579 31,200 1,143 Climbing FlightAware
08:00PM 40.1610 19.0450 309° West 503 579 32,000 585 Climbing FlightAware
08:01PM 40.2170 18.9550 309° West 501 577 32,000  Level FlightAware
08:01PM 40.2810 18.8480 308° West 499 574 32,000  Level FlightAware
08:02PM 40.3410 18.7510 309° West 499 574 32,000  Level FlightAware
08:03PM 40.4030 18.6460 308° West 498 573 32,000  Level FlightAware
08:04PM 40.4630 18.5460 308° West 500 575 32,000  Level FlightAware
08:04PM 40.5120 18.4620 308° West 502 578 32,000  Level FlightAware
08:05PM 40.5700 18.3650 308° West 503 579 32,000  Level FlightAware
08:06PM 40.6350 18.2540 308° West 504 580 32,000  Level FlightAware
08:06PM 40.6840 18.1720 308° West 504 580 32,000  Level FlightAware
08:07PM 40.7420 18.0720 307° West 504 580 32,000  Level FlightAware
08:08PM 40.8000 17.9740 308° West 503 579 32,000  Level FlightAware
08:08PM 40.8600 17.8700 307° West 503 579 32,000  Level FlightAware
08:09PM 40.9220 17.7620 307° West 503 579 32,000  Level FlightAware
08:10PM 40.9790 17.6640 308° West 503 579 32,000  Level FlightAware
08:10PM 41.0420 17.5540 307° West 503 579 32,000  Level FlightAware
08:11PM 41.1090 17.4390 308° West 504 580 32,000  Level FlightAware
08:12PM 41.1680 17.3350 307° West 504 580 32,000  Level FlightAware
08:13PM 41.2250 17.2360 307° West 505 581 32,000  Level FlightAware
08:13PM 41.2760 17.1470 307° West 505 581 32,000  Level FlightAware
08:14PM 41.3330 17.0450 307° West 506 582 32,000  Level FlightAware
08:15PM 41.3970 16.9330 307° West 506 582 32,000  Level FlightAware
08:15PM 41.4510 16.8360 307° West 508 585 32,000  Level FlightAware
08:16PM 41.5100 16.7300 307° West 507 583 32,000  Level FlightAware
08:17PM 41.5690 16.6250 307° West 508 585 32,000  Level FlightAware
08:17PM 41.6290 16.5190 307° West 508 585 32,000  Level FlightAware
08:18PM 41.6790 16.4280 306° West 509 586 32,000  Level FlightAware
08:19PM 41.7350 16.3200 305° West 509 586 32,000  Level FlightAware
08:19PM 41.7880 16.2080 302° West 510 587 32,000  Level FlightAware
08:20PM 41.8440 16.0910 303° West 510 587 32,000  Level FlightAware
08:21PM 41.8950 15.9870 303° West 511 588 32,000  Level FlightAware
08:21PM 41.9530 15.8600 302° West 511 588 32,000  Level FlightAware
08:22PM 42.0000 15.7600 302° West 512 589 32,000  Level FlightAware
08:23PM 42.0500 15.6490 301° West 513 590 32,000  Level FlightAware
08:23PM 42.0960 15.5510 302° West 514 592 32,000  Level FlightAware
08:24PM 42.1500 15.4340 302° West 514 592 32,000  Level FlightAware
08:25PM 42.1970 15.3310 302° West 512 589 32,000  Level FlightAware
08:25PM 42.2450 15.2240 301° West 513 590 32,000  Level FlightAware
08:26PM 42.2950 15.1150 302° West 513 590 32,000  Level FlightAware
08:27PM 42.3480 14.9950 301° West 513 590 32,000  Level FlightAware
08:27PM 42.3920 14.8980 302° West 515 593 32,000  Level FlightAware
08:28PM 42.4390 14.7940 302° West 511 588 32,000  Level FlightAware
08:29PM 42.4880 14.6830 301° West 511 588 32,000  Level FlightAware
08:29PM 42.5350 14.5750 301° West 511 588 32,000  Level FlightAware
08:30PM 42.5840 14.4590 300° West 511 588 32,000  Level FlightAware
08:31PM 42.6470 14.3250 303° West 513 590 32,000  Level FlightAware
08:32PM 42.7010 14.2020 301° West 518 596 32,000  Level FlightAware
08:32PM 42.7440 14.1050 301° West 518 596 32,000  Level FlightAware
08:33PM 42.7930 13.9920 301° West 519 597 32,000  Level FlightAware
08:33PM 42.8410 13.8800 300° West 519 597 32,000  Level FlightAware
08:34PM 42.8900 13.7680 301° West 518 596 32,000  Level FlightAware
08:35PM 42.9380 13.6560 300° West 517 595 32,000  Level FlightAware
08:35PM 42.9870 13.5430 301° West 518 596 32,000  Level FlightAware
08:36PM 43.0430 13.4110 300° West 516 594 32,000  Level FlightAware
08:37PM 43.0920 13.2950 300° West 516 594 32,000  Level FlightAware
08:38PM 43.1420 13.1770 300° West 515 593 32,000  Level FlightAware
08:38PM 43.1930 13.0550 300° West 515 593 32,000  Level FlightAware
08:39PM 43.2350 12.9560 300° West 515 593 32,000  Level FlightAware
08:40PM 43.2860 12.8370 301° West 515 593 32,000  Level FlightAware
08:40PM 43.3380 12.7100 299° West 514 592 32,000  Level FlightAware
08:41PM 43.3790 12.6140 300° West 514 592 32,000  Level FlightAware
08:42PM 43.4280 12.4940 299° West 514 592 32,000  Level FlightAware
08:42PM 43.4740 12.3840 300° West 514 592 32,000  Level FlightAware
08:43PM 43.5250 12.2580 299° West 514 592 32,000  Level FlightAware
08:44PM 43.5720 12.1440 300° West 514 592 32,000  Level FlightAware
08:44PM 43.6230 12.0180 299° West 515 593 32,000  Level FlightAware
08:45PM 43.6700 11.9010 299° West 514 592 32,000  Level FlightAware
08:46PM 43.7170 11.7860 300° West 516 594 32,000  Level FlightAware
08:46PM 43.7600 11.6790 299° West 517 595 32,000  Level FlightAware
08:47PM 43.8090 11.5580 299° West 518 596 32,000  Level FlightAware
08:48PM 43.8550 11.4410 299° West 518 596 32,000  Level FlightAware
08:48PM 43.8960 11.3330 298° West 516 594 32,000  Level FlightAware
08:49PM 43.9410 11.2010 295° West 516 594 32,000  Level FlightAware
08:50PM 43.9810 11.0810 295° West 517 595 32,000  Level FlightAware
08:50PM 44.0190 10.9670 295° West 518 596 32,000  Level FlightAware
08:51PM 44.0630 10.8340 295° West 517 595 32,000  Level FlightAware
08:52PM 44.1030 10.7130 295° West 517 595 32,000  Level FlightAware
08:52PM 44.1380 10.6040 294° West 516 594 32,000  Level FlightAware
08:53PM 44.1780 10.4830 295° West 515 593 32,000  Level FlightAware
08:54PM 44.2170 10.3620 294° West 515 593 32,000  Level FlightAware
08:54PM 44.2590 10.2320 294° West 514 592 32,000  Level FlightAware
08:55PM 44.2970 10.1110 294° West 513 590 32,000  Level FlightAware
08:56PM 44.3400 9.9780 294° West 512 589 32,000  Level FlightAware
08:57PM 44.3810 9.8450 293° West 509 586 32,000  Level FlightAware
08:57PM 44.4130 9.7490 295° West 508 585 32,000  Level FlightAware
08:58PM 44.4540 9.6140 293° West 506 582 32,000  Level FlightAware
08:59PM 44.4920 9.4940 294° West 503 579 32,000  Level FlightAware
08:59PM 44.5250 9.3870 293° West 501 577 32,000  Level FlightAware
09:00PM 44.5650 9.2560 293° West 498 573 32,000  Level FlightAware
09:01PM 44.6020 9.1380 294° West 496 571 32,000  Level FlightAware
09:01PM 44.6380 9.0170 293° West 494 568 32,000  Level FlightAware
09:02PM 44.6770 8.8900 293° West 493 567 32,000  Level FlightAware
09:03PM 44.7130 8.7700 293° West 492 566 32,000  Level FlightAware
09:03PM 44.7530 8.6400 293° West 492 566 32,000  Level FlightAware
09:04PM 44.7840 8.5370 293° West 492 566 32,000  Level FlightAware
09:05PM 44.8190 8.4160 292° West 492 566 32,000  Level FlightAware
09:05PM 44.8570 8.2920 293° West 491 565 32,000  Level FlightAware
09:06PM 44.8920 8.1710 292° West 490 564 32,000  Level FlightAware
09:07PM 44.9290 8.0480 293° West 490 564 32,000  Level FlightAware
09:07PM 44.9670 7.9180 292° West 490 564 32,000  Level FlightAware
09:08PM 45.0010 7.8030 293° West 490 564 32,000  Level FlightAware
09:09PM 45.0340 7.6870 292° West 489 563 32,000  Level FlightAware
09:09PM 45.0700 7.5630 292° West 491 565 32,000  Level FlightAware
09:10PM 45.1040 7.4430 292° West 495 570 32,000  Level FlightAware
09:11PM 45.1500 7.2600 290° West 496 571 32,000  Level FlightAware
09:12PM 45.1810 7.1400 290° West 498 573 32,000  Level FlightAware
09:13PM 45.2150 7.0050 290° West 497 572 32,000  Level FlightAware
09:13PM 45.2470 6.8800 290° West 495 570 32,000  Level FlightAware
09:14PM 45.2820 6.7460 290° West 494 568 32,000  Level FlightAware
09:15PM 45.3130 6.6220 290° West 491 565 32,000  Level FlightAware
09:15PM 45.3410 6.5120 290° West 491 565 32,000  Level FlightAware
09:16PM 45.3630 6.3880 284° West 489 563 32,000  Level FlightAware
09:17PM 45.3770 6.2450 278° West 489 563 32,000  Level FlightAware
09:17PM 45.3900 6.1310 279° West 489 563 32,000  Level FlightAware
09:18PM 45.4050 6.0070 280° West 490 564 32,000  Level FlightAware
09:19PM 45.4210 5.8800 280° West 490 564 32,000  Level FlightAware
09:19PM 45.4340 5.7460 278° West 488 562 32,000  Level FlightAware
09:20PM 45.4480 5.6030 278° West 486 559 32,000  Level FlightAware
09:21PM 45.4620 5.4700 279° West 485 558 32,000  Level FlightAware
09:21PM 45.4760 5.3310 278° West 485 558 32,000  Level FlightAware
09:22PM 45.4860 5.2300 278° West 484 557 32,000  Level FlightAware
09:23PM 45.4990 5.0980 278° West 483 556 32,000  Level FlightAware
09:23PM 45.5120 4.9650 278° West 482 555 32,000  Level FlightAware
09:24PM 45.5230 4.8620 279° West 480 552 32,000  Level FlightAware
09:25PM 45.5380 4.7220 279° West 480 552 32,000  Level FlightAware
09:25PM 45.5510 4.6000 279° West 479 551 32,000  Level FlightAware
09:26PM 45.5620 4.4840 278° West 478 550 32,000  Level FlightAware
09:27PM 45.5770 4.3440 279° West 478 550 32,000  Level FlightAware
09:27PM 45.5890 4.2220 278° West 477 549 32,000  Level FlightAware
09:28PM 45.6020 4.0980 279° West 475 547 32,000  Level FlightAware
09:29PM 45.6160 3.9520 278° West 475 547 32,000  Level FlightAware
09:29PM 45.6280 3.8280 278° West 475 547 32,000  Level FlightAware
09:30PM 45.6400 3.7000 278° West 476 548 32,000  Level FlightAware
09:31PM 45.6520 3.5820 278° West 475 547 32,000  Level FlightAware
09:32PM 45.6660 3.4300 278° West 476 548 32,000  Level FlightAware
09:32PM 45.6770 3.3140 278° West 476 548 32,000  Level FlightAware
09:33PM 45.6890 3.1770 277° West 478 550 32,000  Level FlightAware
09:34PM 45.7020 3.0360 278° West 477 549 32,000  Level FlightAware
09:34PM 45.7130 2.9170 278° West 479 551 32,000  Level FlightAware
09:35PM 45.7220 2.8070 277° West 480 552 32,000  Level FlightAware
09:36PM 45.7350 2.6680 278° West 481 554 32,000  Level FlightAware
09:36PM 45.7460 2.5390 277° West 481 554 32,000  Level FlightAware
09:37PM 45.7540 2.4440 277° West 483 556 32,000  Level FlightAware
09:38PM 45.7690 2.2660 277° West 484 557 32,000  Level FlightAware
09:38PM 45.7800 2.1320 277° West 486 559 32,000  Level FlightAware
09:39PM 45.7900 2.0040 276° West 486 559 32,000  Level FlightAware
09:40PM 45.8000 1.8800 277° West 487 560 32,000  Level FlightAware
09:40PM 45.8080 1.7740 276° West 487 560 32,000  Level FlightAware
09:41PM 45.8200 1.6230 277° West 488 562 32,000  Level FlightAware
09:42PM 45.8290 1.5040 276° West 488 562 32,000  Level FlightAware
09:42PM 45.8390 1.3750 276° West 488 562 32,000  Level FlightAware
09:43PM 45.8480 1.2530 276° West 489 563 32,000  Level FlightAware
09:44PM 45.8580 1.1170 276° West 488 562 32,000  Level FlightAware
09:44PM 45.8690 0.9730 276° West 487 560 32,000  Level FlightAware
09:45PM 45.8780 0.8440 276° West 487 560 32,000  Level FlightAware
09:46PM 45.8880 0.7030 276° West 487 560 32,000  Level FlightAware
09:47PM 45.8960 0.5710 275° West 487 560 32,000  Level FlightAware
09:47PM 45.9040 0.4590 276° West 486 559 32,000  Level FlightAware
09:48PM 45.9120 0.3310 275° West 485 558 32,000  Level FlightAware
09:49PM 45.9210 0.1930 275° West 486 559 32,000  Level FlightAware
09:49PM 45.9300 0.0480 275° West 486 559 32,000  Level FlightAware
09:50PM 45.9370 -0.0610 275° West 488 562 32,000  Level FlightAware
09:51PM 45.9480 -0.2330 275° West 490 564 32,000  Level FlightAware
09:51PM 45.9560 -0.3660 275° West 492 566 32,000  Level FlightAware
09:52PM 45.9630 -0.4930 275° West 493 567 32,000  Level FlightAware
09:53PM 45.9720 -0.6370 275° West 494 568 32,000  Level FlightAware
09:53PM 45.9790 -0.7710 274° West 494 568 32,000  Level FlightAware
09:54PM 45.9860 -0.8990 275° West 494 568 32,000  Level FlightAware
09:55PM 45.9930 -1.0300 274° West 494 568 32,000  Level FlightAware
09:55PM 46.0030 -1.1540 277° West 494 568 32,000  Level FlightAware
09:56PM 46.0270 -1.3170 282° West 492 566 32,000  Level FlightAware
09:57PM 46.0500 -1.4510 284° West 492 566 32,000  Level FlightAware
09:58PM 46.0740 -1.5940 284° West 493 567 32,000  Level FlightAware
09:58PM 46.0940 -1.7220 283° West 493 567 32,000  Level FlightAware
09:59PM 46.1100 -1.8180 284° West 493 567 32,000  Level FlightAware
10:00PM 46.1330 -1.9620 283° West 493 567 32,000  Level FlightAware
10:00PM 46.1550 -2.1060 282° West 493 567 32,000  Level FlightAware
10:01PM 46.1730 -2.2180 283° West 494 568 32,000  Level FlightAware
10:02PM 46.1930 -2.3460 283° West 493 567 32,000  Level FlightAware
10:02PM 46.2160 -2.4940 283° West 494 568 32,000  Level FlightAware
10:03PM 46.2350 -2.6200 282° West 495 570 32,000  Level FlightAware
10:04PM 46.2570 -2.7620 283° West 496 571 32,000  Level FlightAware
10:04PM 46.2750 -2.8820 282° West 496 571 32,000  Level FlightAware
10:05PM 46.2970 -3.0240 283° West 496 571 32,000  Level FlightAware
10:06PM 46.3180 -3.1660 282° West 494 568 32,000  Level FlightAware
10:07PM 46.3380 -3.2990 282° West 495 570 32,000  Level FlightAware
10:07PM 46.3590 -3.4410 282° West 495 570 32,000  Level FlightAware
10:08PM 46.3770 -3.5710 281° West 494 568 32,000  Level FlightAware
10:09PM 46.3970 -3.7060 282° West 493 567 32,000  Level FlightAware
10:09PM 46.4170 -3.8480 282° West 492 566 32,000  Level FlightAware
10:10PM 46.4330 -3.9650 281° West 491 565 32,000  Level FlightAware
10:11PM 46.4470 -4.0650 282° West 492 566 32,000  Level FlightAware
10:11PM 46.4700 -4.2270 282° West 493 567 32,000  Level FlightAware
10:12PM 46.4890 -4.3660 281° West 494 568 32,000  Level FlightAware
10:13PM 46.5080 -4.5030 281° West 495 570 32,000  Level FlightAware
10:13PM 46.5260 -4.6360 281° West 496 571 32,000  Level FlightAware
10:14PM 46.5440 -4.7700 281° West 496 571 32,000  Level FlightAware
10:15PM 46.5620 -4.9040 281° West 497 572 32,000  Level FlightAware
10:15PM 46.5770 -5.0230 280° West 499 574 32,000  Level FlightAware
10:16PM 46.5960 -5.1710 281° West 501 577 32,000  Level FlightAware
10:17PM 46.6140 -5.3040 281° West 502 578 32,000  Level FlightAware
10:18PM 46.6320 -5.4500 280° West 504 580 32,000  Level FlightAware
10:18PM 46.6490 -5.5870 280° West 505 581 32,000  Level FlightAware
10:19PM 46.6660 -5.7200 281° West 504 580 32,000  Level FlightAware
10:20PM 46.6850 -5.8710 280° West 506 582 32,000  Level FlightAware
10:20PM 46.6980 -5.9780 280° West 508 585 32,000  Level FlightAware
10:21PM 46.7170 -6.1340 280° West 511 588 32,000  Level FlightAware
10:22PM 46.7330 -6.2700 280° West 512 589 32,000  Level FlightAware
10:22PM 46.7460 -6.3820 280° West 513 590 32,000  Level FlightAware
10:23PM 46.7590 -6.4980 279° West 513 590 32,000  Level FlightAware
10:24PM 46.7740 -6.6380 279° West 513 590 32,000  Level FlightAware
10:24PM 46.7860 -6.7480 279° West 513 590 32,000  Level FlightAware
10:25PM 46.7970 -6.8530 279° West 513 590 32,000  Level FlightAware
10:26PM 46.8120 -6.9930 279° West 513 590 32,000  Level FlightAware
10:26PM 46.8240 -7.0980 280° West 513 590 32,000  Level FlightAware
10:27PM 46.8390 -7.2370 279° West 513 590 32,000  Level FlightAware
10:28PM 46.8540 -7.3770 279° West 513 590 32,000  Level FlightAware
10:28PM 46.8660 -7.4850 279° West 513 590 32,000  Level FlightAware
10:29PM 46.8770 -7.5900 279° West 513 590 32,000  Level FlightAware
10:30PM 46.8920 -7.7300 279° West 513 590 32,000  Level FlightAware
10:30PM 46.9030 -7.8350 279° West 513 590 32,000  Level FlightAware
10:31PM 46.9190 -7.9750 280° West 513 590 32,000  Level FlightAware
10:32PM 46.9300 -8.0800 279° West 513 590 32,000 -17 Level FlightAware
10:35PM 47.0302 -8.5538 287° West  Level Estimated
10:36PM 47.0680 -8.7356 287° West  Level Estimated
10:37PM 47.1055 -8.9176 287° West  Level Estimated
10:38PM 47.1427 -9.0994 287° West  Level Estimated
10:39PM 47.1796 -9.2820 287° West  Level Estimated
10:40PM 47.2163 -9.4648 287° West  Level Estimated
10:41PM 47.2527 -9.6479 286° West  Level Estimated
10:42PM 47.2888 -9.8312 286° West  Level Estimated
10:43PM 47.3246 -10.0148 286° West  Level Estimated
10:44PM 47.3601 -10.1986 286° West  Level Estimated
10:45PM 47.3953 -10.3827 286° West  Level Estimated
10:46PM 47.4302 -10.5670 286° West  Level Estimated
10:47PM 47.4648 -10.7516 286° West  Level Estimated
10:48PM 47.4991 -10.9364 285° West  Level Estimated
10:49PM 47.5332 -11.1214 285° West  Level Estimated
10:50PM 47.5669 -11.3067 285° West  Level Estimated
10:51PM 47.6003 -11.4923 285° West  Level Estimated
10:52PM 47.6334 -11.6780 285° West  Level Estimated
10:53PM 47.6663 -11.8640 285° West  Level Estimated
10:54PM 47.6988 -12.0502 285° West  Level Estimated
10:55PM 47.7310 -12.2367 284° West  Level Estimated
10:56PM 47.7629 -12.4234 284° West  Level Estimated
10:57PM 47.7946 -12.6103 284° West  Level Estimated
10:58PM 47.8259 -12.7975 284° West  Level Estimated
10:59PM 47.8569 -12.9848 284° West  Level Estimated
11:00PM 47.8876 -13.1724 284° West  Level Estimated
11:01PM 47.9180 -13.3602 284° West  Level Estimated
11:02PM 47.9481 -13.5483 284° West  Level Estimated
11:03PM 47.9779 -13.7365 283° West  Level Estimated
11:04PM 48.0073 -13.9250 283° West  Level Estimated
11:05PM 48.0365 -14.1137 283° West  Level Estimated
11:06PM 48.0654 -14.3025 283° West  Level Estimated
11:07PM 48.0939 -14.4916 283° West  Level Estimated
11:08PM 48.1222 -14.6810 283° West  Level Estimated
11:09PM 48.1500 -14.8702 283° West  Level Estimated
11:10PM 48.1776 -15.0596 282° West  Level Estimated
11:11PM 48.2049 -15.2495 282° West  Level Estimated
11:12PM 48.2319 -15.4397 282° West  Level Estimated
11:13PM 48.2586 -15.6300 282° West  Level Estimated
11:14PM 48.2849 -15.8205 282° West  Level Estimated
11:15PM 48.3110 -16.0112 282° West  Level Estimated
11:16PM 48.3367 -16.2022 282° West  Level Estimated
11:17PM 48.3621 -16.3933 281° West  Level Estimated
11:18PM 48.3877 -16.5886 281° West  Level Estimated
11:19PM 48.4130 -16.7841 281° West  Level Estimated
11:20PM 48.4380 -16.9797 281° West  Level Estimated
11:21PM 48.4626 -17.1756 281° West  Level Estimated
11:22PM 48.4869 -17.3717 281° West  Level Estimated
11:23PM 48.5109 -17.5679 281° West  Level Estimated
11:24PM 48.5345 -17.7644 280° West  Level Estimated
11:25PM 48.5578 -17.9610 280° West  Level Estimated
11:26PM 48.5807 -18.1577 280° West  Level Estimated
11:27PM 48.6034 -18.3547 280° West  Level Estimated
11:28PM 48.6256 -18.5519 280° West  Level Estimated
11:29PM 48.6476 -18.7492 280° West  Level Estimated
11:30PM 48.6692 -18.9467 279° West  Level Estimated
11:31PM 48.6905 -19.1443 279° West  Level Estimated
11:31PM 49.0000 -20.0000 283° West 492 566 31,000  Level ETMS Enhanced Traffic Management System
11:32PM 48.7114 -19.3422 279° West  Level Estimated
11:33PM 48.7320 -19.5401 279° West  Level Estimated
11:34PM 48.7522 -19.7383 279° West  Level Estimated
11:35PM 48.7721 -19.9366 279° West  Level Estimated
11:36PM 48.7917 -20.1351 279° West  Level Estimated
11:37PM 49.1717 -21.2255 282° West 492 566 31,000  Level FlightAware Transoceanic
11:38PM 49.1991 -21.4305 281° West 492 566 31,000  Level FlightAware Transoceanic
11:39PM 49.2260 -21.6358 281° West 492 566 31,000  Level FlightAware Transoceanic
11:40PM 49.2527 -21.8413 281° West 492 566 31,000  Level FlightAware Transoceanic
11:41PM 49.2789 -22.0470 281° West 492 566 31,000  Level FlightAware Transoceanic
11:42PM 49.3048 -22.2530 281° West 492 566 31,000  Level FlightAware Transoceanic
11:43PM 49.3303 -22.4591 281° West 492 566 31,000  Level FlightAware Transoceanic
11:44PM 49.3555 -22.6655 281° West 492 566 31,000  Level FlightAware Transoceanic
11:45PM 49.3803 -22.8721 280° West 492 566 31,000  Level FlightAware Transoceanic
11:46PM 49.4047 -23.0788 280° West 492 566 31,000  Level FlightAware Transoceanic
11:47PM 49.4288 -23.2858 280° West 492 566 31,000  Level FlightAware Transoceanic
11:48PM 49.4524 -23.4930 280° West 492 566 31,000  Level FlightAware Transoceanic
11:49PM 49.4758 -23.7004 280° West 492 566 31,000  Level FlightAware Transoceanic
11:50PM 49.4987 -23.9080 280° West 492 566 31,000  Level FlightAware Transoceanic
11:51PM 49.5213 -24.1158 279° West 492 566 31,000  Level FlightAware Transoceanic
11:52PM 49.5435 -24.3238 279° West 492 566 31,000  Level FlightAware Transoceanic
11:53PM 49.5653 -24.5319 279° West 492 566 31,000  Level FlightAware Transoceanic
11:54PM 49.5868 -24.7403 279° West 492 566 31,000  Level FlightAware Transoceanic
11:55PM 49.6078 -24.9488 279° West 492 566 31,000  Level FlightAware Transoceanic
11:56PM 49.6285 -25.1575 279° West 492 566 31,000  Level FlightAware Transoceanic
11:57PM 49.6489 -25.3664 278° West 492 566 31,000  Level FlightAware Transoceanic
11:58PM 49.6688 -25.5754 278° West 492 566 31,000  Level FlightAware Transoceanic
11:59PM 49.6884 -25.7846 278° West 492 566 31,000  Level FlightAware Transoceanic
12:00AM 49.7076 -25.9940 278° West 492 566 31,000  Level FlightAware Transoceanic
12:01AM 49.7264 -26.2036 278° West 492 566 31,000  Level FlightAware Transoceanic
12:02AM 49.7449 -26.4133 278° West 492 566 31,000  Level FlightAware Transoceanic
12:03AM 49.7629 -26.6232 278° West 492 566 31,000  Level FlightAware Transoceanic
12:04AM 49.7806 -26.8332 277° West 492 566 31,000  Level FlightAware Transoceanic
12:05AM 49.7979 -27.0434 277° West 492 566 31,000  Level FlightAware Transoceanic
12:06AM 49.8148 -27.2537 277° West 492 566 31,000  Level FlightAware Transoceanic
12:07AM 49.8314 -27.4641 277° West 492 566 31,000  Level FlightAware Transoceanic
12:08AM 49.8475 -27.6748 277° West 492 566 31,000  Level FlightAware Transoceanic
12:09AM 49.8633 -27.8855 277° West 492 566 31,000  Level FlightAware Transoceanic
12:10AM 49.8787 -28.0964 276° West 492 566 31,000  Level FlightAware Transoceanic
12:11AM 49.8937 -28.3074 276° West 492 566 31,000  Level FlightAware Transoceanic
12:12AM 49.9084 -28.5186 276° West 492 566 31,000  Level FlightAware Transoceanic
12:13AM 49.9226 -28.7299 276° West 492 566 31,000  Level FlightAware Transoceanic
12:14AM 49.9365 -28.9413 276° West 492 566 31,000  Level FlightAware Transoceanic
12:15AM 49.9499 -29.1528 276° West 492 566 31,000  Level FlightAware Transoceanic
12:16AM 49.9630 -29.3644 275° West 492 566 31,000  Level FlightAware Transoceanic
12:17AM 49.9757 -29.5762 275° West 492 566 31,000  Level FlightAware Transoceanic
12:18AM 49.9881 -29.7880 275° West 492 566 31,000 28 Level FlightAware Transoceanic
12:19AM 49.9996 -29.9929 275° West  Level FlightAware Approximate
12:20AM 50.0107 -30.1979 275° West  Level FlightAware Approximate
12:21AM 50.0079 -30.1882 274° West  Level FlightAware Approximate
12:22AM 50.0161 -30.3907 274° West  Level FlightAware Approximate
12:23AM 50.0239 -30.5933 274° West  Level FlightAware Approximate
12:24AM 50.0314 -30.7959 273° West  Level FlightAware Approximate
12:25AM 50.0385 -30.9985 273° West  Level FlightAware Approximate
12:26AM 50.0453 -31.2012 273° West  Level FlightAware Approximate
12:27AM 50.0517 -31.4040 273° West  Level FlightAware Approximate
12:28AM 50.0578 -31.6068 273° West  Level FlightAware Approximate
12:29AM 50.0635 -31.8097 273° West  Level FlightAware Approximate
12:30AM 50.0688 -32.0127 272° West  Level FlightAware Approximate
12:31AM 50.0738 -32.2156 272° West  Level FlightAware Approximate
12:32AM 50.0785 -32.4186 272° West  Level FlightAware Approximate
12:33AM 50.0828 -32.6217 272° West  Level FlightAware Approximate
12:34AM 50.0867 -32.8248 272° West  Level FlightAware Approximate
12:35AM 50.0903 -33.0279 272° West  Level FlightAware Approximate
12:36AM 50.0935 -33.2310 271° West  Level FlightAware Approximate
12:37AM 50.0964 -33.4342 271° West  Level FlightAware Approximate
12:38AM 50.0989 -33.6374 271° West  Level FlightAware Approximate
12:39AM 50.1011 -33.8406 271° West  Level FlightAware Approximate
12:40AM 50.1030 -34.0439 271° West  Level FlightAware Approximate
12:41AM 50.1045 -34.2471 271° West  Level FlightAware Approximate
12:42AM 50.1057 -34.4504 271° West  Level FlightAware Approximate
12:43AM 50.1065 -34.6536 270° West  Level FlightAware Approximate
12:44AM 50.1069 -34.8569 270° West  Level FlightAware Approximate
12:45AM 50.1070 -35.0602 270° West  Level FlightAware Approximate
12:46AM 50.1068 -35.2635 270° West  Level FlightAware Approximate
12:47AM 50.1061 -35.4667 270° West  Level FlightAware Approximate
12:48AM 50.1052 -35.6700 270° West  Level FlightAware Approximate
12:49AM 50.1038 -35.8732 269° West  Level FlightAware Approximate
12:50AM 50.1021 -36.0765 269° West  Level FlightAware Approximate
12:51AM 50.1001 -36.2797 269° West  Level FlightAware Approximate
12:52AM 50.0977 -36.4829 269° West  Level FlightAware Approximate
12:53AM 50.0950 -36.6861 269° West  Level FlightAware Approximate
12:54AM 50.0919 -36.8892 269° West  Level FlightAware Approximate
12:55AM 50.0884 -37.0924 269° West  Level FlightAware Approximate
12:56AM 50.0846 -37.2955 268° West  Level FlightAware Approximate
12:57AM 50.0805 -37.4985 268° West  Level FlightAware Approximate
12:58AM 50.0759 -37.7016 268° West  Level FlightAware Approximate
12:59AM 50.0711 -37.9046 268° West  Level FlightAware Approximate
01:00AM 50.0658 -38.1075 268° West  Level FlightAware Approximate
01:01AM 50.0603 -38.3104 268° West  Level FlightAware Approximate
01:02AM 50.0543 -38.5133 267° West  Level FlightAware Approximate
01:03AM 50.0480 -38.7161 267° West  Level FlightAware Approximate
01:04AM 50.0414 -38.9188 267° West  Level FlightAware Approximate
01:05AM 50.0344 -39.1215 267° West  Level FlightAware Approximate
01:06AM 50.0271 -39.3241 267° West  Level FlightAware Approximate
01:07AM 50.0194 -39.5267 267° West  Level FlightAware Approximate
01:08AM 50.0113 -39.7292 267° West  Level FlightAware Approximate
01:09AM 50.0029 -39.9316 266° West  Level FlightAware Approximate
01:10AM 49.9795 -40.1304 256° West  Level FlightAware Approximate
01:11AM 49.9483 -40.3272 256° West  Level FlightAware Approximate
01:12AM 49.9168 -40.5237 256° West  Level FlightAware Approximate
01:13AM 49.8849 -40.7200 256° West  Level FlightAware Approximate
01:14AM 49.8529 -40.9154 256° West  Level FlightAware Approximate
01:15AM 49.8204 -41.1105 256° West  Level FlightAware Approximate
01:16AM 49.7877 -41.3054 255° West  Level FlightAware Approximate
01:17AM 49.7546 -41.5000 255° West  Level FlightAware Approximate
01:18AM 49.7212 -41.6943 255° West  Level FlightAware Approximate
01:19AM 49.6875 -41.8884 255° West  Level FlightAware Approximate
01:20AM 49.6534 -42.0821 255° West  Level FlightAware Approximate
01:21AM 49.6190 -42.2757 255° West  Level FlightAware Approximate
01:22AM 49.5844 -42.4689 255° West  Level FlightAware Approximate
01:23AM 49.5501 -42.6622 255° West  Level FlightAware Approximate
01:24AM 49.5162 -42.8555 255° West  Level FlightAware Approximate
01:25AM 49.4820 -43.0486 255° West  Level FlightAware Approximate
01:26AM 49.4475 -43.2414 255° West  Level FlightAware Approximate
01:27AM 49.4127 -43.4339 255° West  Level FlightAware Approximate
01:28AM 49.3775 -43.6261 254° West  Level FlightAware Approximate
01:29AM 49.3420 -43.8181 254° West  Level FlightAware Approximate
01:30AM 49.3063 -44.0098 254° West  Level FlightAware Approximate
01:31AM 49.2701 -44.2012 254° West  Level FlightAware Approximate
01:32AM 49.2337 -44.3923 254° West  Level FlightAware Approximate
01:33AM 49.1970 -44.5831 254° West  Level FlightAware Approximate
01:34AM 49.1600 -44.7737 254° West  Level FlightAware Approximate
01:35AM 49.1226 -44.9640 253° West  Level FlightAware Approximate
01:36AM 49.0849 -45.1539 253° West  Level FlightAware Approximate
01:37AM 49.0469 -45.3436 253° West  Level FlightAware Approximate
01:38AM 49.0087 -45.5330 253° West  Level FlightAware Approximate
01:39AM 48.9701 -45.7221 253° West  Level FlightAware Approximate
01:40AM 48.9311 -45.9109 253° West  Level FlightAware Approximate
01:41AM 48.8919 -46.0995 253° West  Level FlightAware Approximate
01:42AM 48.8524 -46.2877 252° West  Level FlightAware Approximate
01:43AM 48.8126 -46.4756 252° West  Level FlightAware Approximate
01:44AM 48.7724 -46.6632 252° West  Level FlightAware Approximate
01:45AM 48.7320 -46.8506 252° West  Level FlightAware Approximate
01:46AM 48.6912 -47.0376 252° West  Level FlightAware Approximate
01:47AM 48.6502 -47.2243 252° West  Level FlightAware Approximate
01:48AM 48.6088 -47.4107 252° West  Level FlightAware Approximate
01:49AM 48.5672 -47.5969 251° West  Level FlightAware Approximate
01:50AM 48.5252 -47.7826 251° West  Level FlightAware Approximate
01:51AM 48.4830 -47.9681 251° West  Level FlightAware Approximate
01:52AM 48.4404 -48.1533 251° West  Level FlightAware Approximate
01:53AM 48.3976 -48.3382 251° West  Level FlightAware Approximate
01:54AM 48.3545 -48.5228 251° West  Level FlightAware Approximate
01:55AM 48.3110 -48.7070 251° West  Level FlightAware Approximate
01:56AM 48.2673 -48.8909 250° West  Level FlightAware Approximate
01:57AM 48.2233 -49.0746 250° West  Level FlightAware Approximate
01:58AM 48.1790 -49.2579 250° West  Level FlightAware Approximate
01:59AM 48.1344 -49.4408 250° West  Level FlightAware Approximate
02:00AM 48.0895 -49.6235 250° West  Level FlightAware Approximate
02:01AM 48.0443 -49.8059 250° West  Level FlightAware Approximate
02:02AM 48.0000 -49.9882 270° West  Level FlightAware Approximate
02:03AM 47.9684 -50.1762 255° West  Level FlightAware Approximate
02:03AM 47.9650 -50.2100 255° West 435 501 34,000  Level FlightAware
02:04AM 47.9345 -50.3635 255° West  Level FlightAware Approximate
02:04AM 47.9430 -50.3270 254° West 441 507 34,000  Level FlightAware
02:04AM 47.9130 -50.4570 251° West 441 507 34,000  Level FlightAware
02:05AM 47.8840 -50.5930 252° West 440 506 34,000  Level FlightAware
02:06AM 47.8580 -50.7060 251° West 437 503 34,000  Level FlightAware
02:07AM 47.8330 -50.8230 252° West 438 504 34,000  Level FlightAware
02:07AM 47.8120 -50.9210 252° West 435 501 34,000  Level FlightAware
02:08AM 47.7830 -51.0520 252° West 435 501 34,000  Level FlightAware
02:09AM 47.7570 -51.1630 251° West 436 502 34,000  Level FlightAware
02:09AM 47.7340 -51.2620 251° West 436 502 34,000  Level FlightAware
02:10AM 47.7070 -51.3790 251° West 438 504 34,000  Level FlightAware
02:11AM 47.6610 -51.5750 251° West 438 504 34,000  Level FlightAware
02:12AM 47.6320 -51.6990 251° West 438 504 34,000  Level FlightAware
02:12AM 47.6020 -51.8270 251° West 439 505 34,000  Level FlightAware
02:13AM 47.5750 -51.9430 251° West 438 504 34,000  Level FlightAware
02:14AM 47.5510 -52.0420 250° West 438 504 34,000  Level FlightAware
02:14AM 47.5210 -52.1690 251° West 438 504 34,000  Level FlightAware
02:15AM 47.4940 -52.2790 250° West 437 503 34,000  Level FlightAware
02:16AM 47.4650 -52.3970 250° West 435 501 34,000  Level FlightAware
02:16AM 47.4410 -52.4970 250° West 435 501 34,000  Level FlightAware
02:17AM 47.4110 -52.6200 250° West 434 499 34,000  Level FlightAware
02:18AM 47.3870 -52.7180 250° West 437 503 34,000  Level FlightAware
02:19AM 47.3530 -52.8550 250° West 435 501 34,000  Level FlightAware
02:19AM 47.3260 -52.9630 250° West 433 498 34,000  Level FlightAware
02:20AM 47.2970 -53.0790 250° West 432 497 34,000  Level FlightAware
02:21AM 47.2660 -53.2030 250° West 432 497 34,000  Level FlightAware
02:21AM 47.2440 -53.2890 249° West 432 497 34,000  Level FlightAware
02:22AM 47.2130 -53.4120 250° West 429 494 34,000  Level FlightAware
02:23AM 47.1860 -53.5190 250° West 429 494 34,000  Level FlightAware
02:23AM 47.1630 -53.6090 249° West 430 495 34,000  Level FlightAware
02:24AM 47.1290 -53.7400 249° West 430 495 34,000  Level FlightAware
02:25AM 47.1010 -53.8490 249° West 428 493 34,000  Level FlightAware
02:25AM 47.0700 -53.9680 249° West 428 493 34,000  Level FlightAware
02:26AM 47.0410 -54.0790 249° West 426 490 34,000  Level FlightAware
02:27AM 47.0130 -54.1870 249° West 426 490 34,000  Level FlightAware
02:27AM 46.9820 -54.3020 248° West 426 490 34,000  Level FlightAware
02:28AM 46.9500 -54.4230 249° West 425 489 34,000  Level FlightAware
02:29AM 46.9230 -54.5260 249° West 426 490 34,000  Level FlightAware
02:29AM 46.8920 -54.6440 249° West 426 490 34,000  Level FlightAware
02:30AM 46.8630 -54.7510 248° West 425 489 34,000  Level FlightAware
02:31AM 46.8320 -54.8650 248° West 425 489 34,000  Level FlightAware
02:32AM 46.8000 -54.9830 248° West 425 489 34,000  Level FlightAware
02:32AM 46.7740 -55.0790 248° West 427 491 34,000  Level FlightAware
02:33AM 46.7450 -55.1840 248° West 429 494 34,000  Level FlightAware
02:34AM 46.7150 -55.2940 248° West 430 495 34,000  Level FlightAware
02:34AM 46.6820 -55.4120 248° West 432 497 34,000  Level FlightAware
02:35AM 46.6490 -55.5310 248° West 431 496 34,000  Level FlightAware
02:36AM 46.6210 -55.6300 248° West 431 496 34,000  Level FlightAware
02:36AM 46.5910 -55.7370 248° West 430 495 34,000  Level FlightAware
02:37AM 46.5570 -55.8570 248° West 428 493 34,000  Level FlightAware
02:38AM 46.5300 -55.9530 248° West 429 494 34,000  Level FlightAware
02:38AM 46.4990 -56.0630 248° West 431 496 34,000  Level FlightAware
02:39AM 46.4510 -56.2290 247° West 431 496 34,000  Level FlightAware
02:41AM 46.4030 -56.3920 247° West 431 496 34,000  Level FlightAware
02:41AM 46.3700 -56.5120 248° West 433 498 34,000  Level FlightAware
02:42AM 46.3380 -56.6210 247° West 433 498 34,000  Level FlightAware
02:43AM 46.2840 -56.8090 247° West 434 499 34,000  Level FlightAware
02:44AM 46.2510 -56.9180 246° West 435 501 34,000  Level FlightAware
02:45AM 46.2190 -57.0300 248° West 435 501 34,000  Level FlightAware
02:45AM 46.1950 -57.1120 247° West 435 501 34,000  Level FlightAware
02:46AM 46.1620 -57.2210 246° West 435 501 34,000  Level FlightAware
02:47AM 46.1380 -57.3030 247° West 435 501 34,000  Level FlightAware
02:47AM 46.1060 -57.4120 247° West 435 501 34,000  Level FlightAware
02:48AM 46.0460 -57.6070 246° West 438 504 34,000  Level FlightAware
02:49AM 46.0110 -57.7220 246° West 438 504 34,000  Level FlightAware
02:49AM 45.9760 -57.8370 246° West 439 505 34,000  Level FlightAware
02:50AM 45.9420 -57.9460 246° West 440 506 34,000  Level FlightAware
02:51AM 45.9090 -58.0560 247° West 439 505 34,000  Level FlightAware
02:51AM 45.8720 -58.1730 246° West 441 507 34,000  Level FlightAware
02:52AM 45.8360 -58.2910 246° West 442 509 34,000  Level FlightAware
02:53AM 45.8030 -58.3980 246° West 444 511 34,000  Level FlightAware
02:54AM 45.7650 -58.5160 245° Southwest 445 512 34,000  Level FlightAware
02:54AM 45.7350 -58.6130 246° West 448 516 34,000  Level FlightAware
02:55AM 45.7010 -58.7210 246° West 448 516 34,000  Level FlightAware
02:56AM 45.6510 -58.8740 245° Southwest 448 516 34,000  Level FlightAware
02:57AM 45.6150 -58.9920 246° West 450 518 34,000  Level FlightAware
02:57AM 45.5740 -59.1190 245° Southwest 450 518 34,000  Level FlightAware
02:58AM 45.5420 -59.2180 245° Southwest 451 519 34,000  Level FlightAware
02:59AM 45.5070 -59.3260 245° Southwest 451 519 34,000  Level FlightAware
02:59AM 45.4680 -59.4450 245° Southwest 451 519 34,000  Level FlightAware
03:01AM 45.4120 -59.6180 245° Southwest 454 522 34,000  Level FlightAware
03:01AM 45.3700 -59.7450 245° Southwest 454 522 34,000  Level FlightAware
03:02AM 45.3310 -59.8640 245° Southwest 454 522 34,000  Level FlightAware
03:03AM 45.2940 -59.9740 244° Southwest 454 522 34,000  Level FlightAware
03:03AM 45.2550 -60.0930 245° Southwest 454 522 34,000  Level FlightAware
03:04AM 45.2190 -60.2010 245° Southwest 453 521 34,000  Level FlightAware
03:05AM 45.1790 -60.3190 244° Southwest 454 522 34,000  Level FlightAware
03:05AM 45.1440 -60.4230 245° Southwest 454 522 34,000  Level FlightAware
03:06AM 45.1030 -60.5440 244° Southwest 454 522 34,000  Level FlightAware
03:07AM 45.0790 -60.6160 245° Southwest 454 522 34,000  Level FlightAware
03:07AM 45.0400 -60.7290 244° Southwest 454 522 34,000  Level FlightAware
03:08AM 45.0060 -60.8280 244° Southwest 453 521 34,000  Level FlightAware
03:09AM 44.9660 -60.9430 244° Southwest 453 521 34,000  Level FlightAware
03:09AM 44.9380 -61.0240 244° Southwest 453 521 34,000  Level FlightAware
03:10AM 44.9000 -61.1330 244° Southwest 453 521 34,000  Level FlightAware
03:11AM 44.8640 -61.2390 244° Southwest 453 521 34,000  Level FlightAware
03:12AM 44.8240 -61.3540 244° Southwest 453 521 34,000  Level FlightAware
03:12AM 44.7960 -61.4360 244° Southwest 453 521 34,000  Level FlightAware
03:13AM 44.7580 -61.5440 244° Southwest 453 521 34,000  Level FlightAware
03:14AM 44.7300 -61.6250 244° Southwest 453 521 34,000  Level FlightAware
03:15AM 44.6930 -61.7330 244° Southwest 453 521 34,000  Level FlightAware
03:15AM 44.6650 -61.8140 244° Southwest 453 521 34,000  Level FlightAware
03:16AM 44.6360 -61.8950 243° Southwest 453 521 34,000  Level FlightAware
03:17AM 44.5990 -62.0030 244° Southwest 453 521 34,000  Level FlightAware
03:17AM 44.5710 -62.0840 244° Southwest 453 521 34,000  Level FlightAware
03:18AM 44.4450 -62.4160 242° Southwest 34,000  Level FlightAware
03:19AM 44.4070 -62.5190 243° Southwest 462 532 34,000  Level FlightAware
03:19AM 44.3620 -62.6440 243° Southwest 463 533 34,000  Level FlightAware
03:20AM 44.3180 -62.7640 243° Southwest 464 534 34,000  Level FlightAware
03:21AM 44.2740 -62.8810 242° Southwest 464 534 34,000  Level FlightAware
03:22AM 44.2320 -62.9950 243° Southwest 466 536 34,000  Level FlightAware
03:22AM 44.2000 -63.0810 243° Southwest 466 536 34,000  Level FlightAware
03:23AM 44.1530 -63.2060 242° Southwest 467 537 34,000  Level FlightAware
03:24AM 44.1120 -63.3180 243° Southwest 467 537 34,000  Level FlightAware
03:24AM 44.0750 -63.4130 242° Southwest 466 536 34,000  Level FlightAware
03:25AM 44.0300 -63.5350 243° Southwest 467 537 34,000  Level FlightAware
03:26AM 43.9840 -63.6540 242° Southwest 467 537 34,000  Level FlightAware
03:26AM 43.9440 -63.7580 242° Southwest 466 536 34,000  Level FlightAware
03:27AM 43.9060 -63.8580 242° Southwest 466 536 34,000  Level FlightAware
03:28AM 43.8620 -63.9730 242° Southwest 463 533 34,000  Level FlightAware
03:28AM 43.8200 -64.0800 241° Southwest 461 531 34,000  Level FlightAware
03:29AM 43.7770 -64.1950 243° Southwest 463 533 34,000  Level FlightAware
03:30AM 43.7480 -64.2680 241° Southwest 464 534 34,000  Level FlightAware
03:31AM 43.6950 -64.4040 242° Southwest 466 536 34,000  Level FlightAware
03:31AM 43.6480 -64.5230 241° Southwest 460 529 34,000  Level FlightAware
03:32AM 43.6050 -64.6320 241° Southwest 458 527 34,000  Level FlightAware
03:33AM 43.5610 -64.7460 242° Southwest 458 527 34,000  Level FlightAware
03:33AM 43.5150 -64.8630 242° Southwest 464 534 34,000  Level FlightAware
03:34AM 43.4830 -64.9400 240° Southwest 463 533 34,000  Level FlightAware
03:35AM 43.4380 -65.0540 242° Southwest 462 532 34,000  Level FlightAware
03:35AM 43.3960 -65.1590 241° Southwest 458 527 34,000  Level FlightAware
03:36AM 43.3610 -65.2460 241° Southwest 457 526 34,000  Level FlightAware
03:37AM 43.3140 -65.3620 241° Southwest 461 531 34,000  Level FlightAware
03:37AM 43.2720 -65.4660 241° Southwest 462 532 34,000  Level FlightAware
03:38AM 43.2290 -65.5710 241° Southwest 463 533 34,000  Level FlightAware
03:39AM 43.1810 -65.6890 241° Southwest 465 535 34,000  Level FlightAware
03:39AM 43.1390 -65.7900 240° Southwest 467 537 34,000 225 Level FlightAware
03:40AM 43.0960 -65.8960 241° Southwest 467 537 34,300 1,084 Climbing FlightAware
03:41AM 43.0540 -65.9990 241° Southwest 465 535 35,500 1,857 Climbing FlightAware
03:42AM 43.0070 -66.1120 240° Southwest 463 533 36,900 1,735 Climbing FlightAware
03:42AM 42.9640 -66.2150 240° Southwest 458 527 37,900 776 Climbing FlightAware
03:43AM 42.9170 -66.3260 240° Southwest 460 529 38,000 71 Climbing FlightAware
03:44AM 42.8750 -66.4300 241° Southwest 459 528 38,000  Level FlightAware
03:45AM 42.8250 -66.5470 240° Southwest 460 529 38,000  Level FlightAware
03:45AM 42.7850 -66.6440 241° Southwest 461 531 38,000  Level FlightAware
03:46AM 42.7410 -66.7460 240° Southwest 461 531 38,000  Level FlightAware
03:46AM 42.7180 -66.8000 240° Southwest 461 531 38,000  Level FlightAware
03:47AM 42.6750 -66.9020 240° Southwest 461 531 38,000  Level FlightAware
03:48AM 42.6400 -66.9840 240° Southwest 461 531 38,000  Level FlightAware
03:49AM 42.5970 -67.0860 240° Southwest 461 531 38,000  Level FlightAware
03:49AM 42.5640 -67.1630 240° Southwest 461 531 38,000  Level FlightAware
03:50AM 42.5200 -67.2670 240° Southwest 461 531 38,000  Level FlightAware
03:51AM 42.4860 -67.3460 240° Southwest 461 531 38,000  Level FlightAware
03:51AM 42.4540 -67.4220 240° Southwest 461 531 38,000  Level FlightAware
03:52AM 42.5160 -67.7400 285° West 449 517 38,000  Level FlightAware
03:53AM 42.4980 -67.8470 257° West 449 517 38,000  Level FlightAware
03:53AM 42.4770 -67.9740 257° West 453 521 38,000  Level FlightAware
03:54AM 42.4570 -68.0990 258° West 453 521 38,000  Level FlightAware
03:55AM 42.4390 -68.1980 256° West 451 519 38,000  Level FlightAware
03:56AM 42.3930 -68.3540 248° West 456 525 38,000  Level FlightAware
03:56AM 42.3570 -68.4620 246° West 464 534 38,000 -75 Level FlightAware
03:57AM 42.3200 -68.5680 245° Southwest 464 534 37,900 -776 Descending FlightAware
03:58AM 42.2800 -68.6860 245° Southwest 466 536 36,900 -1,326 Descending FlightAware
03:58AM 42.2430 -68.7920 245° Southwest 467 537 36,000 -1,280 Descending FlightAware
03:59AM 42.2120 -68.8860 246° West 470 541 35,300 -1,297 Descending FlightAware
04:00AM 42.1740 -68.9930 244° Southwest 472 543 34,400 -1,256 Descending FlightAware
04:00AM 42.1320 -69.1130 245° Southwest 472 543 33,500 -1,200 Descending FlightAware
04:01AM 42.1000 -69.2070 245° Southwest 474 545 32,800 -1,139 Descending FlightAware
04:02AM 42.0560 -69.3310 244° Southwest 475 547 32,000 -565 Descending FlightAware
04:02AM 42.0200 -69.4360 245° Southwest 475 547 32,000  Level FlightAware
04:03AM 41.9800 -69.5480 244° Southwest 473 544 32,000  Level FlightAware
04:04AM 41.9390 -69.6610 244° Southwest 474 545 32,000  Level FlightAware
04:04AM 41.8980 -69.7780 245° Southwest 478 550 32,000  Level FlightAware
04:05AM 41.8610 -69.8800 244° Southwest 477 549 32,000  Level FlightAware
04:06AM 41.8210 -69.9920 244° Southwest 477 549 32,000  Level FlightAware
04:06AM 41.7910 -70.0770 245° Southwest 478 550 32,000  Level FlightAware
04:07AM 41.7350 -70.2290 244° Southwest 481 554 32,000  Level FlightAware
04:08AM 41.7030 -70.3180 244° Southwest 480 552 32,000  Level FlightAware
04:09AM 41.6600 -70.4360 244° Southwest 480 552 32,000  Level FlightAware
04:09AM 41.6280 -70.5300 246° West 483 556 32,000  Level FlightAware
04:10AM 41.5750 -70.6780 244° Southwest 483 556 32,000  Level FlightAware
04:11AM 41.5090 -70.8550 244° Southwest 484 557 32,000  Level FlightAware
04:12AM 41.4660 -70.9760 245° Southwest 485 558 32,000  Level FlightAware
04:13AM 41.4200 -71.1000 244° Southwest 484 557 32,000 -140 Level FlightAware
04:13AM 41.3810 -71.2060 244° Southwest 475 547 31,800 -480 Descending FlightAware
04:14AM 41.3480 -71.2940 243° Southwest 462 532 31,400 -635 Descending FlightAware
04:15AM 41.2830 -71.4710 244° Southwest 450 518 30,700 -635 Descending FlightAware
04:15AM 41.2681 -71.5103 243° Southwest 447 514 30,500 -652 Descending FlightAware ADS-B
04:16AM 41.2406 -71.5834 243° Southwest 442 509 30,200 -590 Descending FlightAware ADS-B
04:16AM 41.2129 -71.6583 244° Southwest 435 501 29,900 -581 Descending FlightAware ADS-B
04:17AM 41.1856 -71.7317 244° Southwest 431 496 29,600 -689 Descending FlightAware ADS-B
04:17AM 41.1583 -71.8023 243° Southwest 428 493 29,200 -1,180 Descending FlightAware ADS-B
04:18AM 41.1319 -71.8742 244° Southwest 418 481 28,400 -1,967 Descending FlightAware ADS-B
04:18AM 41.1059 -71.9424 243° Southwest 415 478 27,200 -2,557 Descending FlightAware ADS-B
04:19AM 41.0792 -72.0133 243° Southwest 416 479 25,800 -2,656 Descending FlightAware ADS-B
04:19AM 41.0531 -72.0809 243° Southwest 411 473 24,500 -2,400 Descending FlightAware ADS-B
04:20AM 41.0277 -72.1477 243° Southwest 403 464 23,400 -2,262 Descending FlightAware ADS-B
04:20AM 41.0022 -72.2156 244° Southwest 398 458 22,200 -2,262 Descending FlightAware ADS-B
04:21AM 40.9771 -72.2803 243° Southwest 391 450 21,100 -2,700 Descending FlightAware ADS-B
04:21AM 40.9522 -72.3445 243° Southwest 397 457 19,500 -2,852 Descending FlightAware ADS-B
04:22AM 40.9271 -72.4111 244° Southwest 394 453 18,200 -2,710 Descending FlightAware ADS-B
04:22AM 40.9011 -72.4781 243° Southwest 395 455 16,700 -2,958 Descending FlightAware ADS-B
04:23AM 40.8678 -72.5639 243° Southwest 395 455 14,700 -2,795 Descending FlightAware ADS-B
04:24AM 40.8410 -72.6340 243° Southwest 386 444 13,300 -2,000 Descending FlightAware
04:24AM 40.8170 -72.6957 243° Southwest 372 428 12,600 -1,377 Descending FlightAware ADS-B
04:25AM 40.7934 -72.7568 243° Southwest 359 413 11,900 -689 Descending FlightAware ADS-B
04:25AM 40.7711 -72.8125 242° Southwest 331 381 11,900  Level FlightAware ADS-B
04:26AM 40.7564 -72.8503 243° Southwest 307 353 11,900  Level FlightAware ADS-B
04:26AM 40.7518 -72.8674 250° West 296 341 11,900 -353 Level FlightAware ADS-B
04:26AM 40.7506 -72.8797 263° West 287 330 11,800 -375 Descending FlightAware ADS-B
04:26AM 40.7508 -72.8950 271° West 279 321 11,800 -938 Level FlightAware ADS-B
04:26AM 40.7530 -72.9334 274° West 273 314 11,300 -1,222 Descending FlightAware ADS-B
04:27AM 40.7558 -72.9843 274° West 268 308 10,700 -1,158 Descending FlightAware ADS-B
04:27AM 40.7581 -73.0262 274° West 262 302 10,200 -1,143 Descending FlightAware ADS-B
04:28AM 40.7593 -73.0515 274° West 260 299 9,900 -1,125 Descending FlightAware ADS-B
04:28AM 40.7607 -73.0766 274° West 257 296 9,600 -1,200 Descending FlightAware ADS-B
04:28AM 40.7619 -73.0986 274° West 261 300 9,300 -1,000 Descending FlightAware ADS-B
04:28AM 40.7634 -73.1243 274° West 268 308 9,100 -1,029 Descending FlightAware ADS-B
04:29AM 40.7655 -73.1553 275° West 268 308 8,700 -1,235 Descending FlightAware ADS-B
04:29AM 40.7671 -73.1797 275° West 265 305 8,400 -1,161 Descending FlightAware ADS-B
04:29AM 40.7686 -73.2051 274° West 262 302 8,100 -1,300 Descending FlightAware ADS-B
04:30AM 40.7730 -73.2750 275° West 260 299 7,100 -1,352 Descending FlightAware
04:30AM 40.7760 -73.3180 275° West 258 297 6,500 -1,053 Descending FlightAware
04:31AM 40.7790 -73.3630 275° West 236 272 6,100 -818 Descending FlightAware
04:31AM 40.7800 -73.3820 274° West 224 258 5,900 -900 Descending FlightAware
04:32AM 40.7820 -73.4160 274° West 216 249 5,500 -1,053 Descending FlightAware
04:32AM 40.7760 -73.4560 259° West 205 236 4,900 -1,082 Descending FlightAware
04:33AM 40.7690 -73.4890 254° West 190 219 4,400 -1,158 Descending FlightAware
04:33AM 40.7620 -73.5200 253° West 186 214 3,800 -1,200 Descending FlightAware
04:33AM 40.7550 -73.5500 253° West 176 203 3,300 -750 Descending FlightAware
04:34AM 40.7530 -73.5620 258° West 167 192 3,300 -732 Level FlightAware
04:34AM 40.7470 -73.5880 253° West 159 183 2,800 -1,116 Descending FlightAware
04:34AM 40.7430 -73.6010 248° West 159 183 2,500 -1,231 Descending FlightAware
04:35AM 40.7380 -73.6250 255° West 158 182 2,000 -720 Descending FlightAware
04:35AM 40.7330 -73.6470 253° West 157 181 1,900 -577 Descending FlightAware
04:36AM 40.7270 -73.6730 253° West 158 182 1,500 -545 Descending FlightAware
04:36AM 40.7180 -73.6960 243° Southwest 155 178 1,400 -293 Descending FlightAware
04:36AM 40.7110 -73.7040 221° Southwest 159 183 1,300 -439 Descending FlightAware
04:37AM 40.6930 -73.7170 209° Southwest 157 181 1,100 -682 Descending FlightAware
04:37AM 40.6830 -73.7250 211° Southwest 146 168 800 -1,071 Descending FlightAware
04:37AM 40.6770 -73.7300 212° Southwest 146 168 600 -769 Descending FlightAware
04:38AM 40.6600 -73.7430 210° Southwest 146 168 300 -667 Descending FlightAware
04:38AM 40.6440 -73.7560 212° Southwest 141 162 -643 Descending FlightAware
04:39AM 40.6340 -73.7640 211° Southwest 46 53  Level FlightAware
04:39AM 40.6310 -73.7660 207° Southwest 16 18  Level FlightAware
04:39AM 40.6300 -73.7670 217° Southwest 32 37  Level FlightAware

Login

Don't have an account? Register now (free) for customized features, flight alerts, and more!